createdAt,value
2019-04-20T00:01:29.448Z,24.47
2019-04-20T00:03:56.497Z,25.20
2019-04-20T00:06:25.086Z,23.23
2019-04-20T00:08:59.844Z,24.57
2019-04-20T00:11:28.170Z,26.10
2019-04-20T00:14:04.132Z,25.50
2019-04-20T00:16:25.658Z,26.37
2019-04-20T00:18:58.588Z,24.87
2019-04-20T00:21:52.657Z,26.00
2019-04-20T00:24:37.585Z,25.70
2019-04-20T00:27:32.824Z,26.10
2019-04-20T00:29:54.755Z,26.33
2019-04-20T00:32:18.546Z,26.90
2019-04-20T00:34:40.698Z,27.30
2019-04-20T00:37:08.857Z,28.80
2019-04-20T00:39:38.276Z,28.40
2019-04-20T00:42:11.226Z,27.97
2019-04-20T00:44:39.483Z,27.17
2019-04-20T00:47:22.964Z,26.77
2019-04-20T00:49:52.333Z,29.37
2019-04-20T00:52:27.420Z,29.00
2019-04-20T00:54:39.125Z,27.13
2019-04-20T00:57:20.329Z,28.77
2019-04-20T01:00:03.651Z,28.60
2019-04-20T01:02:22.897Z,30.10
2019-04-20T01:04:57.878Z,30.40
2019-04-20T01:07:42.033Z,30.47
2019-04-20T01:10:13.148Z,31.07
2019-04-20T01:12:44.494Z,31.20
2019-04-20T01:15:24.517Z,31.97
2019-04-20T01:17:43.868Z,31.13
2019-04-20T01:20:13.780Z,31.97
2019-04-20T01:22:48.399Z,33.47
2019-04-20T01:25:23.102Z,34.63
2019-04-20T01:28:06.757Z,33.60
2019-04-20T01:30:25.244Z,35.17
2019-04-20T01:33:00.178Z,34.73
2019-04-20T01:35:35.664Z,36.07
2019-04-20T01:38:08.530Z,36.83
2019-04-20T01:40:19.126Z,38.60
2019-04-20T01:42:48.998Z,36.63
2019-04-20T01:45:24.731Z,37.97
2019-04-20T01:47:52.902Z,38.90
2019-04-20T01:50:23.016Z,39.40
2019-04-20T01:52:57.794Z,41.67
2019-04-20T01:55:44.006Z,41.93
2019-04-20T01:58:23.690Z,41.43
2019-04-20T02:01:13.660Z,44.43
2019-04-20T02:03:48.168Z,43.93
2019-04-20T02:06:18.867Z,45.53
2019-04-20T02:08:46.266Z,46.83
2019-04-20T02:11:21.872Z,49.17
2019-04-20T02:13:51.653Z,48.77
2019-04-20T02:16:24.391Z,50.27
2019-04-20T02:19:06.541Z,49.80
2019-04-20T02:21:36.835Z,48.83
2019-04-20T02:23:53.056Z,49.83
2019-04-20T02:26:17.883Z,50.97
2019-04-20T02:29:14.528Z,52.40
2019-04-20T02:32:04.726Z,52.73
2019-04-20T02:34:31.586Z,53.53
2019-04-20T02:37:09.579Z,53.30
2019-04-20T02:41:57.430Z,54.37
2019-04-20T02:44:44.233Z,55.63
2019-04-20T02:47:07.242Z,56.70
2019-04-20T02:49:37.673Z,57.23
2019-04-20T02:52:04.554Z,59.20
2019-04-20T02:54:26.513Z,60.47
2019-04-20T02:57:07.395Z,62.47
2019-04-20T02:59:53.360Z,61.33
2019-04-20T03:01:51.737Z,64.10
2019-04-20T03:04:06.908Z,62.07
2019-04-20T03:06:53.494Z,64.50
2019-04-20T03:09:29.879Z,65.30
2019-04-20T03:14:21.764Z,66.33
2019-04-20T03:16:57.204Z,65.20
2019-04-20T03:19:19.806Z,67.67
2019-04-20T03:22:06.510Z,69.83
2019-04-20T03:24:32.320Z,70.37
2019-04-20T03:27:19.609Z,71.47
2019-04-20T03:29:56.790Z,73.93
2019-04-20T03:37:36.412Z,73.10
2019-04-20T03:39:56.734Z,74.83
2019-04-20T03:42:15.906Z,77.13
2019-04-20T03:44:54.240Z,75.67
2019-04-20T03:47:27.881Z,72.23
2019-04-20T03:50:06.125Z,74.93
2019-04-20T03:52:43.394Z,78.60
2019-04-20T03:55:39.690Z,76.97
2019-04-20T03:58:03.415Z,82.27
2019-04-20T04:00:36.218Z,79.07
2019-04-20T04:03:45.967Z,78.67
2019-04-20T04:06:04.141Z,79.83
2019-04-20T04:08:29.840Z,73.80
2019-04-20T04:11:10.879Z,78.00
2019-04-20T04:13:21.003Z,77.03
2019-04-20T04:15:55.643Z,81.13
2019-04-20T04:18:28.134Z,78.27
2019-04-20T04:20:59.559Z,81.00
2019-04-20T04:23:40.461Z,78.97
2019-04-20T04:26:08.586Z,81.07
2019-04-20T04:28:41.064Z,82.20
2019-04-20T04:31:11.991Z,81.40
2019-04-20T04:36:10.214Z,82.10
2019-04-20T04:38:47.538Z,83.00
2019-04-20T04:41:20.245Z,85.13
2019-04-20T04:43:44.322Z,82.30
2019-04-20T04:45:57.462Z,87.77
2019-04-20T04:48:32.110Z,86.20
2019-04-20T04:51:03.901Z,82.77
2019-04-20T04:53:42.871Z,85.37
2019-04-20T04:56:04.834Z,86.70
2019-04-20T04:58:29.819Z,86.67
2019-04-20T05:01:05.556Z,85.33
2019-04-20T05:03:46.390Z,86.57
2019-04-20T05:06:46.963Z,86.33
2019-04-20T05:09:03.259Z,87.03
2019-04-20T05:11:32.009Z,88.50
2019-04-20T05:14:06.686Z,88.53
2019-04-20T05:17:01.829Z,87.80
2019-04-20T05:19:26.074Z,83.37
2019-04-20T05:25:08.736Z,84.87
2019-04-20T05:27:56.241Z,83.73
2019-04-20T05:30:08.208Z,84.53
2019-04-20T05:32:48.330Z,84.97
2019-04-20T05:35:27.017Z,79.13
2019-04-20T05:38:15.805Z,81.23
2019-04-20T05:40:32.961Z,80.63
2019-04-20T05:43:20.610Z,79.73
2019-04-20T05:45:41.670Z,82.03
2019-04-20T05:48:16.411Z,77.47
2019-04-20T05:50:54.911Z,82.50
2019-04-20T05:53:28.832Z,77.50
2019-04-20T05:55:54.446Z,79.97
2019-04-20T05:58:26.307Z,78.57
2019-04-20T06:01:01.613Z,75.97
2019-04-20T06:03:28.866Z,80.87
2019-04-20T06:06:05.101Z,82.57
2019-04-20T06:08:38.971Z,78.63
2019-04-20T06:11:02.058Z,82.30
2019-04-20T06:13:57.803Z,81.60
2019-04-20T06:16:45.746Z,79.33
2019-04-20T06:19:19.952Z,80.10
2019-04-20T06:22:10.330Z,82.40
2019-04-20T06:24:45.583Z,78.37
2019-04-20T06:27:10.364Z,76.57
2019-04-20T06:29:41.308Z,78.53
2019-04-20T06:32:20.322Z,81.03
2019-04-20T06:34:54.636Z,80.83
2019-04-20T06:37:09.963Z,78.60
2019-04-20T06:42:15.128Z,77.70
2019-04-20T06:44:41.276Z,73.83
2019-04-20T06:47:21.294Z,73.90
2019-04-20T06:49:53.260Z,74.77
2019-04-20T06:52:45.375Z,73.03
2019-04-20T06:55:19.904Z,69.90
2019-04-20T06:57:54.765Z,68.07
2019-04-20T07:00:35.043Z,67.97
2019-04-20T07:03:01.865Z,67.63
2019-04-20T07:05:31.112Z,68.30
2019-04-20T07:08:17.201Z,68.80
2019-04-20T07:10:40.738Z,65.03
2019-04-20T07:13:02.707Z,67.83
2019-04-20T07:15:48.730Z,65.60
2019-04-20T07:18:26.144Z,65.30
2019-04-20T07:21:16.090Z,65.87
2019-04-20T07:26:01.880Z,65.67
2019-04-20T07:28:32.825Z,60.93
2019-04-20T07:31:01.819Z,64.27
2019-04-20T07:33:32.290Z,59.97
2019-04-20T07:36:04.125Z,59.77
2019-04-20T07:38:40.156Z,60.10
2019-04-20T07:41:08.736Z,59.10
2019-04-20T07:43:48.021Z,55.93
2019-04-20T07:46:24.972Z,56.67
2019-04-20T07:48:39.555Z,55.90
2019-04-20T07:51:01.461Z,55.30
2019-04-20T07:53:36.179Z,54.77
2019-04-20T07:56:11.457Z,54.30
2019-04-20T07:58:33.933Z,54.87
2019-04-20T08:01:31.374Z,55.70
2019-04-20T08:04:02.328Z,55.47
2019-04-20T08:06:40.757Z,55.50
2019-04-20T08:09:20.729Z,54.07
2019-04-20T08:12:04.661Z,54.67
2019-04-20T08:14:31.825Z,54.40
2019-04-20T08:17:13.965Z,52.67
2019-04-20T08:19:28.658Z,53.57
2019-04-20T08:22:04.559Z,53.87
2019-04-20T08:24:30.506Z,54.03
2019-04-20T08:26:55.034Z,52.27
2019-04-20T08:29:41.729Z,50.40
2019-04-20T08:32:20.143Z,53.17
2019-04-20T08:34:55.976Z,51.77
2019-04-20T08:37:23.402Z,51.57
2019-04-20T08:40:10.300Z,51.40
2019-04-20T08:42:21.785Z,51.33
2019-04-20T08:44:59.909Z,50.77
2019-04-20T08:47:33.641Z,49.63
2019-04-20T08:50:17.217Z,47.57
2019-04-20T08:53:06.830Z,48.57
2019-04-20T08:55:10.639Z,48.20
2019-04-20T08:57:24.700Z,48.53
2019-04-20T08:59:54.347Z,48.47
2019-04-20T09:02:23.902Z,48.07
2019-04-20T09:05:00.605Z,47.80
2019-04-20T09:07:28.230Z,48.63
2019-04-20T09:10:18.950Z,45.63
2019-04-20T09:12:40.525Z,47.47
2019-04-20T09:14:55.266Z,45.33
2019-04-20T09:17:45.271Z,43.57
2019-04-20T09:20:14.701Z,45.10
2019-04-20T09:22:51.881Z,43.67
2019-04-20T09:28:14.524Z,40.67
2019-04-20T09:30:44.044Z,39.93
2019-04-20T09:33:44.025Z,41.07
2019-04-20T09:36:10.322Z,39.20
2019-04-20T09:38:58.537Z,39.90
2019-04-20T09:41:45.238Z,38.30
2019-04-20T09:43:51.089Z,39.10
2019-04-20T09:46:22.163Z,38.10
2019-04-20T09:48:56.088Z,40.23
2019-04-20T09:51:40.232Z,39.33
2019-04-20T09:54:05.319Z,37.90
2019-04-20T09:56:36.999Z,38.90
2019-04-20T09:59:12.203Z,37.70
2019-04-20T10:01:33.591Z,29.33
2019-04-20T10:03:54.935Z,35.63
2019-04-20T10:06:27.253Z,33.13
2019-04-20T10:08:58.295Z,32.00
2019-04-20T10:11:25.566Z,34.67
2019-04-20T10:13:54.422Z,31.57
2019-04-20T10:16:23.848Z,28.33
2019-04-20T10:18:54.931Z,28.30
2019-04-20T10:21:23.659Z,26.83
2019-04-20T10:23:52.529Z,27.17
2019-04-20T10:26:22.713Z,26.70
2019-04-20T10:28:51.883Z,29.43
2019-04-20T10:31:20.480Z,27.67
2019-04-20T10:33:49.351Z,27.57
2019-04-20T10:36:30.492Z,29.40
2019-04-20T10:39:00.562Z,27.13
2019-04-20T10:41:37.950Z,25.67
2019-04-20T10:44:00.758Z,27.20
2019-04-20T10:46:31.024Z,26.70
2019-04-20T10:49:03.831Z,26.87
2019-04-20T10:51:31.239Z,26.63
2019-04-20T10:54:00.467Z,25.03
2019-04-20T10:56:29.557Z,28.67
2019-04-20T10:59:01.411Z,25.30
2019-04-20T11:01:29.956Z,26.00
2019-04-20T11:03:59.070Z,26.53
2019-04-20T11:06:28.934Z,26.23
2019-04-20T11:08:58.555Z,27.13
2019-04-20T11:11:30.335Z,26.60
2019-04-20T11:14:06.591Z,25.67
2019-04-20T11:16:32.715Z,25.57
2019-04-20T11:19:03.162Z,23.13
2019-04-20T11:21:32.602Z,24.73
2019-04-20T11:24:02.509Z,23.77
2019-04-20T11:26:32.192Z,24.07
2019-04-20T11:29:02.106Z,22.10
2019-04-20T11:31:37.412Z,21.00
2019-04-20T11:34:01.124Z,21.00
2019-04-20T11:36:31.033Z,20.67
2019-04-20T11:39:00.498Z,19.87
2019-04-20T11:41:32.357Z,20.20
2019-04-20T11:43:59.946Z,20.70
2019-04-20T11:46:30.126Z,18.90
2019-04-20T11:48:59.550Z,19.43
2019-04-20T11:51:28.047Z,18.83
2019-04-20T11:53:56.749Z,18.93
2019-04-20T11:56:31.467Z,19.37
2019-04-20T11:58:56.744Z,14.87
2019-04-20T12:01:52.165Z,9.03
2019-04-20T12:04:34.084Z,8.27
2019-04-20T12:06:53.062Z,8.13
2019-04-20T12:09:21.909Z,7.50
2019-04-20T12:12:04.244Z,6.47
2019-04-20T12:14:21.071Z,5.60
2019-04-20T12:16:49.956Z,7.20
2019-04-20T12:19:18.726Z,7.10
2019-04-20T12:21:48.000Z,6.73
2019-04-20T12:24:16.807Z,5.77
2019-04-20T12:26:46.888Z,5.53
2019-04-20T12:29:16.209Z,5.20
2019-04-20T12:31:52.213Z,5.17
2019-04-20T12:34:16.136Z,5.33
2019-04-20T12:36:44.859Z,5.23
2019-04-20T12:39:15.019Z,5.70
2019-04-20T12:41:50.484Z,5.43
2019-04-20T12:44:15.313Z,5.50
2019-04-20T12:46:44.026Z,5.90
2019-04-20T12:49:13.763Z,5.50
2019-04-20T12:51:50.623Z,5.37
2019-04-20T12:54:12.651Z,5.83
2019-04-20T12:56:42.505Z,5.87
2019-04-20T12:59:11.635Z,6.53
2019-04-20T13:01:41.512Z,5.80
2019-04-20T13:04:10.308Z,5.87
2019-04-20T13:06:39.743Z,6.33
2019-04-20T13:09:12.625Z,5.90
2019-04-20T13:12:04.867Z,5.67
2019-04-20T13:14:58.261Z,6.63
2019-04-20T13:17:28.241Z,5.80
2019-04-20T13:19:57.468Z,6.13
2019-04-20T13:22:26.253Z,5.17
2019-04-20T13:24:55.112Z,5.37
2019-04-20T13:27:25.063Z,5.33
2019-04-20T13:29:54.659Z,5.27
2019-04-20T13:32:23.830Z,5.60
2019-04-20T13:34:53.918Z,5.00
2019-04-20T13:37:23.107Z,5.07
2019-04-20T13:39:53.179Z,5.20
2019-04-20T13:42:26.178Z,5.37
2019-04-20T13:44:54.822Z,5.37
2019-04-20T13:47:25.099Z,5.17
2019-04-20T13:49:54.882Z,4.90
2019-04-20T13:52:24.740Z,4.90
2019-04-20T13:54:53.994Z,4.90
2019-04-20T13:57:28.693Z,5.77
2019-04-20T13:59:58.032Z,5.20
2019-04-20T14:02:37.293Z,5.50
2019-04-20T14:05:08.706Z,5.03
2019-04-20T14:07:37.909Z,5.40
2019-04-20T14:10:06.973Z,5.07
2019-04-20T14:12:38.835Z,5.50
2019-04-20T14:15:06.968Z,5.03
2019-04-20T14:17:37.118Z,5.20
2019-04-20T14:20:11.378Z,5.07
2019-04-20T14:22:37.158Z,4.87
2019-04-20T14:25:06.998Z,5.10
2019-04-20T14:27:35.500Z,4.97
2019-04-20T14:30:04.534Z,5.17
2019-04-20T14:32:34.583Z,5.00
2019-04-20T14:35:03.206Z,4.40
2019-04-20T14:37:32.999Z,5.10
2019-04-20T14:40:02.280Z,5.10
2019-04-20T14:42:41.851Z,4.77
2019-04-20T14:45:02.388Z,5.17
2019-04-20T14:47:32.117Z,4.80
2019-04-20T14:50:02.943Z,5.47
2019-04-20T14:52:51.520Z,4.80
2019-04-20T14:55:21.170Z,5.20
2019-04-20T14:57:51.013Z,5.00
2019-04-20T15:00:41.630Z,5.50
2019-04-20T15:03:34.059Z,4.87
2019-04-20T15:06:03.367Z,5.10
2019-04-20T15:08:32.472Z,5.40
2019-04-20T15:11:01.269Z,5.33
2019-04-20T15:13:30.818Z,5.13
2019-04-20T15:16:00.585Z,5.40
2019-04-20T15:18:33.905Z,5.43
2019-04-20T15:21:03.996Z,5.07
2019-04-20T15:23:33.202Z,5.33
2019-04-20T15:26:02.404Z,5.30
2019-04-20T15:28:32.468Z,5.53
2019-04-20T15:31:02.484Z,5.07
2019-04-20T15:33:31.217Z,5.40
2019-04-20T15:36:00.102Z,5.03
2019-04-20T15:38:31.235Z,5.47
2019-04-20T15:41:00.170Z,5.27
2019-04-20T15:43:30.261Z,4.70
2019-04-20T15:45:59.500Z,5.07
2019-04-20T15:48:28.264Z,4.77
2019-04-20T15:50:58.215Z,5.00
2019-04-20T15:53:26.728Z,5.37
2019-04-20T15:55:57.587Z,4.73
2019-04-20T15:58:28.232Z,5.10
2019-04-20T16:01:02.750Z,5.10
2019-04-20T16:03:53.373Z,5.27
2019-04-20T16:06:23.143Z,5.10
2019-04-20T16:08:56.485Z,4.70
2019-04-20T16:11:26.548Z,5.37
2019-04-20T16:13:56.257Z,4.70
2019-04-20T16:16:27.753Z,4.70
2019-04-20T16:18:56.977Z,4.70
2019-04-20T16:21:28.442Z,5.30
2019-04-20T16:24:01.158Z,5.07
2019-04-20T16:26:37.978Z,5.20
2019-04-20T16:29:08.089Z,5.27
2019-04-20T16:31:38.445Z,5.43
2019-04-20T16:34:07.707Z,5.20
2019-04-20T16:36:36.773Z,4.83
2019-04-20T16:39:09.123Z,5.40
2019-04-20T16:41:40.229Z,5.00
2019-04-20T16:44:09.358Z,5.20
2019-04-20T16:46:38.381Z,5.17
2019-04-20T16:49:08.470Z,5.20
2019-04-20T16:51:37.020Z,5.20
2019-04-20T16:54:05.955Z,5.20
2019-04-20T16:56:35.048Z,5.93
2019-04-20T16:59:09.313Z,5.33
2019-04-20T17:01:35.245Z,6.13
2019-04-20T17:04:09.779Z,7.80
2019-04-20T17:06:42.279Z,6.10
2019-04-20T17:09:12.256Z,6.97
2019-04-20T17:11:41.581Z,10.73
2019-04-20T17:14:12.742Z,6.77
2019-04-20T17:16:41.888Z,5.83
2019-04-20T17:19:11.419Z,5.90
2019-04-20T17:22:23.375Z,5.33
2019-04-20T17:24:53.600Z,4.80
2019-04-20T17:27:44.919Z,4.83
2019-04-20T17:30:33.640Z,5.87
2019-04-20T17:33:06.184Z,13.90
2019-04-20T17:35:47.327Z,13.73
2019-04-20T17:38:06.972Z,15.43
2019-04-20T17:40:56.007Z,16.47
2019-04-20T17:43:19.160Z,16.63
2019-04-20T17:45:48.351Z,17.33
2019-04-20T17:48:18.782Z,18.03
2019-04-20T17:50:59.091Z,18.80
2019-04-20T17:53:37.642Z,18.47
2019-04-20T17:55:57.261Z,18.17
2019-04-20T17:58:29.774Z,17.10
2019-04-20T18:01:21.079Z,16.67
2019-04-20T18:04:13.954Z,18.87
2019-04-20T18:06:30.494Z,18.07
2019-04-20T18:09:00.436Z,18.20
2019-04-20T18:11:22.601Z,18.00
2019-04-20T18:14:00.780Z,17.90
2019-04-20T18:16:49.243Z,17.17
2019-04-20T18:19:21.788Z,17.90
2019-04-20T18:21:49.769Z,16.10
2019-04-20T18:24:46.592Z,16.03
2019-04-20T18:27:06.841Z,14.10
2019-04-20T18:29:53.168Z,11.80
2019-04-20T18:32:29.278Z,10.97
2019-04-20T18:35:20.257Z,10.67
2019-04-20T18:37:52.586Z,9.93
2019-04-20T18:40:29.045Z,9.40
2019-04-20T18:43:03.502Z,10.63
2019-04-20T18:45:33.808Z,11.17
2019-04-20T18:48:14.654Z,11.13
2019-04-20T18:50:31.722Z,12.33
2019-04-20T18:52:55.799Z,12.07
2019-04-20T18:55:40.865Z,13.17
2019-04-20T18:58:11.079Z,13.23
2019-04-20T19:00:54.190Z,13.43
2019-04-20T19:03:36.641Z,13.70
2019-04-20T19:06:07.775Z,13.20
2019-04-20T19:08:44.653Z,12.90
2019-04-20T19:11:23.182Z,13.30
2019-04-20T19:14:33.586Z,14.10
2019-04-20T19:17:19.995Z,14.47
2019-04-20T19:20:02.361Z,15.03
2019-04-20T19:22:44.341Z,13.83
2019-04-20T19:25:31.687Z,14.50
2019-04-20T19:28:08.781Z,14.60
2019-04-20T19:31:01.719Z,16.67
2019-04-20T19:33:34.242Z,15.10
2019-04-20T19:35:59.632Z,15.83
2019-04-20T19:38:25.594Z,16.07
2019-04-20T19:41:00.130Z,16.53
2019-04-20T19:43:31.518Z,16.80
2019-04-20T19:46:34.919Z,18.23
2019-04-20T19:48:39.666Z,16.23
2019-04-20T19:51:20.708Z,17.43
2019-04-20T19:54:00.012Z,18.80
2019-04-20T19:56:28.139Z,19.00
2019-04-20T19:58:55.243Z,18.60
2019-04-20T20:01:09.407Z,17.83
2019-04-20T20:03:39.592Z,18.13
2019-04-20T20:06:11.012Z,17.30
2019-04-20T20:08:40.458Z,17.93
2019-04-20T20:11:16.892Z,18.40
2019-04-20T20:13:46.097Z,16.63
2019-04-20T20:16:20.198Z,17.37
2019-04-20T20:18:54.271Z,18.13
2019-04-20T20:21:40.584Z,20.07
2019-04-20T20:23:59.663Z,17.77
2019-04-20T20:26:36.192Z,18.20
2019-04-20T20:29:09.722Z,19.80
2019-04-20T20:31:48.445Z,19.80
2019-04-20T20:34:10.942Z,19.63
2019-04-20T20:36:43.513Z,21.17
2019-04-20T20:39:09.642Z,20.57
2019-04-20T20:41:49.830Z,20.23
2019-04-20T20:44:15.682Z,21.40
2019-04-20T20:46:43.931Z,21.10
2019-04-20T20:49:28.445Z,20.60
2019-04-20T20:51:57.387Z,20.47
2019-04-20T20:54:22.423Z,21.57
2019-04-20T20:56:49.925Z,23.20
2019-04-20T20:59:25.413Z,22.53
2019-04-20T21:01:51.274Z,23.00
2019-04-20T21:04:13.199Z,23.43
2019-04-20T21:06:42.562Z,23.30
2019-04-20T21:09:12.507Z,24.07
2019-04-20T21:11:44.205Z,23.53
2019-04-20T21:14:19.978Z,23.73
2019-04-20T21:16:57.484Z,24.07
2019-04-20T21:19:28.581Z,25.20
2019-04-20T21:21:55.027Z,25.30
2019-04-20T21:24:21.528Z,25.37
2019-04-20T21:26:51.790Z,24.70
2019-04-20T21:29:31.767Z,25.20
2019-04-20T21:32:00.811Z,25.87
2019-04-20T21:34:24.174Z,24.80
2019-04-20T21:36:55.263Z,27.20
2019-04-20T21:39:33.608Z,26.43
2019-04-20T21:42:00.095Z,26.63
2019-04-20T21:44:28.730Z,26.13
2019-04-20T21:46:56.291Z,26.20
2019-04-20T21:49:40.024Z,24.90
2019-04-20T21:52:01.691Z,26.30
2019-04-20T21:54:27.680Z,25.93
2019-04-20T21:57:01.859Z,26.57
2019-04-20T21:59:32.120Z,26.43
2019-04-20T22:02:03.388Z,28.87
2019-04-20T22:04:29.072Z,28.10
2019-04-20T22:06:58.295Z,25.63
2019-04-20T22:09:34.767Z,28.03
2019-04-20T22:11:58.131Z,28.10
2019-04-20T22:14:31.563Z,26.60
2019-04-20T22:16:59.683Z,28.60
2019-04-20T22:19:38.771Z,28.50
2019-04-20T22:22:05.456Z,26.70
2019-04-20T22:24:43.433Z,26.50
2019-04-20T22:27:06.421Z,25.47
2019-04-20T22:29:30.177Z,26.53
2019-04-20T22:32:05.397Z,25.23
2019-04-20T22:34:30.160Z,27.03
2019-04-20T22:36:59.942Z,27.77
2019-04-20T22:39:39.758Z,25.97
2019-04-20T22:42:09.004Z,26.93
2019-04-20T22:44:36.400Z,26.70
2019-04-20T22:47:12.421Z,28.43
2019-04-20T22:49:50.010Z,27.67
2019-04-20T22:52:24.064Z,28.30
2019-04-20T22:54:50.340Z,26.67
2019-04-20T22:57:17.707Z,28.50
2019-04-20T22:59:48.456Z,28.70
2019-04-20T23:02:09.792Z,30.27
2019-04-20T23:04:40.621Z,31.33
2019-04-20T23:07:10.587Z,28.53
2019-04-20T23:09:46.867Z,27.67
2019-04-20T23:12:15.135Z,31.17
2019-04-20T23:14:40.437Z,27.43
2019-04-20T23:17:10.295Z,29.60
2019-04-20T23:19:47.415Z,27.67
2019-04-20T23:22:13.513Z,27.07
2019-04-20T23:24:41.485Z,29.43
2019-04-20T23:27:13.966Z,27.60
2019-04-20T23:29:41.708Z,25.07
2019-04-20T23:32:12.626Z,28.13
2019-04-20T23:34:42.646Z,27.60
2019-04-20T23:37:19.654Z,26.57
2019-04-20T23:39:44.993Z,26.73
2019-04-20T23:42:17.774Z,26.07
2019-04-20T23:44:56.716Z,26.30
2019-04-20T23:47:49.711Z,24.20
2019-04-20T23:50:38.230Z,26.50
2019-04-20T23:53:08.664Z,24.23
2019-04-20T23:55:19.018Z,24.03
2019-04-20T23:57:55.851Z,26.17
